Portada
METAR-TAF:

METAR-TAF

Aeroports :

Shenzhen, Xina

latitud: 22-33N, longitud: 114-06E, altitud: 18 m

Observació

L'informe es va fer fa 53 minuts, a les 00:00 UTC
Vent 6 kt del Est/Sud-Est
Temperatura 24°C
Humitat 83%
Pressió 1013 hPa
Visibilitat: 7000 m
Escasses núvols a una alçada de 4300 ft

METAR: ZGSZ 200000Z 12003MPS 7000 FEW043 24/21 Q1013 NOSIG

Hora: 08:53 (00:53 UTC)

Pronòstic

L'informe es va fer fa 5 hores i 31 minuts, a les 19:22 UTC
Pronòstic vàlid del 20 a les 00 UTC al 20 a les 24 UTC
Vent 8 kt del Sud/Sud-Est
Visibilitat: 5000 m
Núvols disperses a una alçada de 3000 ft
boirina

TAF: ZGSZ 191922Z 2000/2024 16004MPS 5000 BR SCT030 TX25/2006Z TN22/2022Z

Observacions i pronòstics meteorològics de més de 4000 aeroports (METAR i TAF).

Les estacions disponibles són els punts grocs i vermells al mapa.

Posi el ratolí al punt desitjat per veure el nom de l'estació.

Feu clic per veure les observacions i els pronòstics meteorològics.

Per canviar el mapa: feu clic els botons verds amb una creu de color negre per apropar; al botó verd amb un guió per allunyar la imatge; o en les fletxes verdes per a mapes adjacents.


METAR-TAF: